createdAt,value
2022-10-28T00:00:07.910Z,96363.50
2022-10-28T00:02:34.511Z,96364.09
2022-10-28T00:05:01.179Z,96350.81
2022-10-28T00:07:28.575Z,96364.69
2022-10-28T00:09:55.118Z,96361.44
2022-10-28T00:12:21.670Z,96359.88
2022-10-28T00:14:48.195Z,96357.44
2022-10-28T00:17:14.714Z,96356.91
2022-10-28T00:19:41.307Z,96356.41
2022-10-28T00:22:07.784Z,96352.91
2022-10-28T00:24:34.365Z,96357.84
2022-10-28T00:27:00.843Z,96356.22
2022-10-28T00:29:27.293Z,96353.78
2022-10-28T00:31:53.835Z,96356.03
2022-10-28T00:34:20.851Z,96365.28
2022-10-28T00:36:48.423Z,96362.06
2022-10-28T00:39:18.200Z,96361.53
2022-10-28T00:41:47.974Z,96355.59
2022-10-28T00:44:51.525Z,96356.19
2022-10-28T00:47:24.085Z,96350.75
2022-10-28T00:49:54.466Z,96349.94
2022-10-28T00:52:25.654Z,96346.75
2022-10-28T00:54:53.151Z,96346.22
2022-10-28T00:57:25.892Z,96346.50
2022-10-28T00:59:54.069Z,96345.72
2022-10-28T01:02:21.131Z,96345.88
2022-10-28T01:04:48.332Z,96338.44
2022-10-28T01:07:16.702Z,96337.66
2022-10-28T01:09:43.891Z,96336.81
2022-10-28T01:12:19.215Z,96332.81
2022-10-28T01:15:00.701Z,96334.69
2022-10-28T01:17:55.017Z,96331.50
2022-10-28T01:20:27.286Z,96324.75
2022-10-28T01:22:58.502Z,96314.69
2022-10-28T01:25:41.576Z,96325.84
2022-10-28T01:28:37.384Z,96325.34
2022-10-28T01:31:28.846Z,96326.75
2022-10-28T01:34:17.214Z,96330.06
2022-10-28T01:36:56.281Z,96325.41
2022-10-28T01:39:34.576Z,96324.63
2022-10-28T01:42:18.994Z,96331.16
2022-10-28T01:44:48.127Z,96322.50
2022-10-28T01:47:27.180Z,96323.28
2022-10-28T01:50:06.083Z,96321.69
2022-10-28T01:52:33.293Z,96320.03
2022-10-28T01:55:18.711Z,96316.81
2022-10-28T01:57:48.475Z,96317.63
2022-10-28T02:00:15.399Z,96327.41
2022-10-28T02:02:43.467Z,96323.06
2022-10-28T02:05:40.647Z,96319.84
2022-10-28T02:08:15.374Z,96327.50
2022-10-28T02:10:56.079Z,96319.34
2022-10-28T02:13:39.111Z,96318.50
2022-10-28T02:16:47.655Z,96310.97
2022-10-28T02:19:26.256Z,96321.81
2022-10-28T02:22:17.586Z,96314.50
2022-10-28T02:25:04.159Z,96314.50
2022-10-28T02:28:07.918Z,96315.09
2022-10-28T02:31:03.752Z,96309.66
2022-10-28T02:33:36.268Z,96310.47
2022-10-28T02:36:07.568Z,96310.16
2022-10-28T02:38:45.891Z,96299.59
2022-10-28T02:41:30.956Z,96304.22
2022-10-28T02:44:05.353Z,96304.22
2022-10-28T02:46:35.211Z,96307.75
2022-10-28T02:49:06.782Z,96305.03
2022-10-28T02:51:45.442Z,96312.38
2022-10-28T02:54:18.131Z,96306.13
2022-10-28T02:56:57.204Z,96310.75
2022-10-28T02:59:25.288Z,96308.03
2022-10-28T03:01:51.868Z,96315.78
2022-10-28T03:04:18.394Z,96317.28
2022-10-28T03:06:44.901Z,96310.75
2022-10-28T03:09:11.360Z,96309.97
2022-10-28T03:11:37.839Z,96306.41
2022-10-28T03:14:04.363Z,96311.84
2022-10-28T03:16:31.039Z,96303.69
2022-10-28T03:18:57.679Z,96307.25
2022-10-28T03:21:24.296Z,96304.81
2022-10-28T03:23:50.878Z,96296.66
2022-10-28T03:26:17.422Z,96304.53
2022-10-28T03:28:43.989Z,96295.25
2022-10-28T03:31:10.619Z,96297.97
2022-10-28T03:33:37.151Z,96291.44
2022-10-28T03:36:03.788Z,96300.09
2022-10-28T03:38:30.335Z,96302.50
2022-10-28T03:40:56.771Z,96293.25
2022-10-28T03:43:23.352Z,96294.06
2022-10-28T03:45:49.845Z,96297.59
2022-10-28T03:48:16.405Z,96301.13
2022-10-28T03:50:43.037Z,96298.91
2022-10-28T03:53:09.526Z,96302.44
2022-10-28T03:55:36.006Z,96304.03
2022-10-28T03:58:03.246Z,96303.75
2022-10-28T04:00:30.152Z,96307.81
2022-10-28T04:02:56.886Z,96299.97
2022-10-28T04:05:23.609Z,96307.81
2022-10-28T04:07:50.437Z,96305.59
2022-10-28T04:10:17.023Z,96303.69
2022-10-28T04:12:43.549Z,96305.31
2022-10-28T04:15:10.081Z,96305.00
2022-10-28T04:17:36.827Z,96305.00
2022-10-28T04:20:03.937Z,96307.41
2022-10-28T04:22:30.418Z,96309.03
2022-10-28T04:24:56.950Z,96300.06
2022-10-28T04:27:23.432Z,96301.69
2022-10-28T04:29:50.028Z,96302.78
2022-10-28T04:32:16.685Z,96301.69
2022-10-28T04:34:43.142Z,96306.03
2022-10-28T04:37:09.861Z,96302.19
2022-10-28T04:39:36.412Z,96302.19
2022-10-28T04:42:02.860Z,96305.72
2022-10-28T04:44:29.327Z,96303.81
2022-10-28T04:46:56.439Z,96301.88
2022-10-28T04:49:22.998Z,96303.81
2022-10-28T04:51:49.498Z,96304.59
2022-10-28T04:54:15.981Z,96303.50
2022-10-28T04:56:42.604Z,96300.00
2022-10-28T04:59:09.084Z,96294.56
2022-10-28T05:01:36.533Z,96302.72
2022-10-28T05:04:03.260Z,96292.34
2022-10-28T05:06:29.867Z,96285.28
2022-10-28T05:08:56.683Z,96301.28
2022-10-28T05:11:23.144Z,96293.94
2022-10-28T05:13:49.626Z,96287.41
2022-10-28T05:16:16.127Z,96285.47
2022-10-28T05:18:42.615Z,96286.31
2022-10-28T05:21:09.079Z,96291.75
2022-10-28T05:23:35.669Z,96287.91
2022-10-28T05:26:02.207Z,96286.00
2022-10-28T05:28:28.671Z,96294.47
2022-10-28T05:30:55.353Z,96284.69
2022-10-28T05:33:22.400Z,96275.44
2022-10-28T05:35:48.992Z,96288.19
2022-10-28T05:38:15.693Z,96285.78
2022-10-28T05:40:42.753Z,96284.19
2022-10-28T05:43:10.308Z,96290.13
2022-10-28T05:45:37.224Z,96284.19
2022-10-28T05:48:04.167Z,96293.13
2022-10-28T05:50:30.717Z,96283.06
2022-10-28T05:52:57.788Z,96292.03
2022-10-28T05:55:26.570Z,96285.47
2022-10-28T05:57:53.532Z,96282.47
2022-10-28T06:00:23.186Z,96287.59
2022-10-28T06:02:50.073Z,96284.88
2022-10-28T06:05:17.151Z,96285.72
2022-10-28T06:07:43.788Z,96284.59
2022-10-28T06:10:11.473Z,96289.41
2022-10-28T06:12:36.696Z,96280.16
2022-10-28T06:15:03.621Z,96283.38
2022-10-28T06:17:30.130Z,96294.75
2022-10-28T06:19:56.593Z,96293.66
2022-10-28T06:22:23.096Z,96291.44
2022-10-28T06:24:49.599Z,96286.53
2022-10-28T06:27:16.225Z,96294.09
2022-10-28T06:29:42.767Z,96298.91
2022-10-28T06:32:09.345Z,96301.84
2022-10-28T06:34:36.014Z,96305.53
2022-10-28T06:37:02.618Z,96298.41
2022-10-28T06:39:29.329Z,96296.41
2022-10-28T06:41:55.835Z,96303.66
2022-10-28T06:44:22.303Z,96314.13
2022-10-28T06:46:50.503Z,96310.19
2022-10-28T06:49:16.958Z,96324.19
2022-10-28T06:51:43.424Z,96318.63
2022-10-28T06:54:09.985Z,96317.41
2022-10-28T06:56:36.540Z,96318.94
2022-10-28T06:59:03.102Z,96332.94
2022-10-28T07:01:29.739Z,96332.81
2022-10-28T07:03:56.588Z,96326.97
2022-10-28T07:06:23.096Z,96335.84
2022-10-28T07:08:49.597Z,96328.03
2022-10-28T07:11:16.181Z,96329.53
2022-10-28T07:13:44.305Z,96322.91
2022-10-28T07:16:13.167Z,96332.25
2022-10-28T07:18:39.659Z,96321.72
2022-10-28T07:21:06.214Z,96324.84
2022-10-28T07:23:32.729Z,96318.66
2022-10-28T07:25:59.325Z,96328.00
2022-10-28T07:28:26.900Z,96333.81
2022-10-28T07:30:53.936Z,96338.53
2022-10-28T07:33:20.606Z,96337.78
2022-10-28T07:35:47.127Z,96343.59
2022-10-28T07:38:13.662Z,96345.56
2022-10-28T07:40:40.426Z,96350.59
2022-10-28T07:43:06.898Z,96350.13
2022-10-28T07:45:34.714Z,96357.56
2022-10-28T07:48:01.266Z,96348.94
2022-10-28T07:50:27.905Z,96351.72
2022-10-28T07:52:54.875Z,96345.50
2022-10-28T07:55:21.597Z,96355.66
2022-10-28T07:57:48.315Z,96354.88
2022-10-28T08:00:15.914Z,96348.31
2022-10-28T08:02:42.459Z,96354.13
2022-10-28T08:05:09.153Z,96346.78
2022-10-28T08:07:38.527Z,96360.13
2022-10-28T08:10:06.410Z,96355.81
2022-10-28T08:12:33.015Z,96358.22
2022-10-28T08:14:59.460Z,96359.53
2022-10-28T08:17:26.096Z,96366.63
2022-10-28T08:19:52.602Z,96365.19
2022-10-28T08:22:19.174Z,96361.78
2022-10-28T08:24:45.682Z,96355.41
2022-10-28T08:27:12.202Z,96356.34
2022-10-28T08:29:38.713Z,96351.81
2022-10-28T08:32:08.426Z,96354.38
2022-10-28T08:34:37.926Z,96344.81
2022-10-28T08:37:07.596Z,96352.50
2022-10-28T08:39:34.268Z,96350.03
2022-10-28T08:42:29.787Z,96355.78
2022-10-28T08:45:23.861Z,96357.28
2022-10-28T08:48:06.003Z,96356.06
2022-10-28T08:50:35.167Z,96349.34
2022-10-28T08:53:19.402Z,96345.97
2022-10-28T08:55:48.432Z,96347.00
2022-10-28T08:58:27.569Z,96343.97
2022-10-28T09:00:56.685Z,96341.41
2022-10-28T09:03:26.386Z,96336.31
2022-10-28T09:06:00.240Z,96331.31
2022-10-28T09:08:29.283Z,96332.94
2022-10-28T09:11:35.704Z,96332.84
2022-10-28T09:14:08.125Z,96332.63
2022-10-28T09:16:41.722Z,96332.19
2022-10-28T09:19:33.293Z,96328.66
2022-10-28T09:22:39.871Z,96337.69
2022-10-28T09:25:25.258Z,96342.50
2022-10-28T09:28:21.101Z,96341.78
2022-10-28T09:31:30.517Z,96336.25
2022-10-28T09:34:21.528Z,96335.78
2022-10-28T09:36:54.139Z,96341.94
2022-10-28T09:39:27.650Z,96332.31
2022-10-28T09:41:57.146Z,96343.88
2022-10-28T09:44:32.345Z,96340.88
2022-10-28T09:47:02.058Z,96345.78
2022-10-28T09:49:34.754Z,96342.81
2022-10-28T09:52:18.881Z,96340.59
2022-10-28T09:54:51.501Z,96334.47
2022-10-28T09:57:18.832Z,96333.06
2022-10-28T09:59:45.753Z,96335.56
2022-10-28T10:02:29.161Z,96336.47
2022-10-28T10:05:01.134Z,96338.16
2022-10-28T10:07:37.266Z,96342.97
2022-10-28T10:10:12.862Z,96335.16
2022-10-28T10:12:39.658Z,96338.34
2022-10-28T10:15:11.804Z,96331.69
2022-10-28T10:17:47.488Z,96330.91
2022-10-28T10:20:19.900Z,96335.25
2022-10-28T10:22:48.058Z,96331.34
2022-10-28T10:25:20.443Z,96326.72
2022-10-28T10:28:02.393Z,96323.50
2022-10-28T10:30:39.104Z,96327.19
2022-10-28T10:33:07.293Z,96323.00
2022-10-28T10:35:36.804Z,96316.09
2022-10-28T10:38:06.709Z,96325.25
2022-10-28T10:40:51.143Z,96317.53
2022-10-28T10:43:17.611Z,96314.94
2022-10-28T10:46:02.322Z,96315.06
2022-10-28T10:48:34.396Z,96310.59
2022-10-28T10:51:07.160Z,96312.72
2022-10-28T10:53:35.267Z,96305.41
2022-10-28T10:56:04.711Z,96301.22
2022-10-28T10:58:34.651Z,96304.94
2022-10-28T11:01:04.492Z,96306.25
2022-10-28T11:03:50.465Z,96302.06
2022-10-28T11:06:29.251Z,96299.53
2022-10-28T11:09:23.013Z,96295.44
2022-10-28T11:11:49.584Z,96298.84
2022-10-28T11:14:22.435Z,96294.34
2022-10-28T11:16:50.380Z,96286.75
2022-10-28T11:19:23.963Z,96290.38
2022-10-28T11:21:57.139Z,96280.22
2022-10-28T11:24:39.520Z,96279.72
2022-10-28T11:27:14.557Z,96279.91
2022-10-28T11:29:41.354Z,96275.78
2022-10-28T11:32:19.378Z,96272.28
2022-10-28T11:34:54.757Z,96274.81
2022-10-28T11:37:42.000Z,96271.72
2022-10-28T11:40:39.365Z,96267.41
2022-10-28T11:43:34.058Z,96265.84
2022-10-28T11:46:16.580Z,96270.13
2022-10-28T11:49:12.603Z,96266.06
2022-10-28T11:52:05.585Z,96263.63
2022-10-28T11:54:45.698Z,96257.19
2022-10-28T11:57:17.050Z,96254.38
2022-10-28T12:00:12.810Z,96253.44
2022-10-28T12:02:49.454Z,96246.69
2022-10-28T12:05:47.236Z,96246.63
2022-10-28T12:08:16.336Z,96253.75
2022-10-28T12:11:07.165Z,96241.06
2022-10-28T12:13:53.420Z,96242.28
2022-10-28T12:16:54.412Z,96242.72
2022-10-28T12:19:38.804Z,96229.31
2022-10-28T12:22:16.091Z,96230.94
2022-10-28T12:24:45.750Z,96235.72
2022-10-28T12:27:28.169Z,96229.38
2022-10-28T12:30:01.316Z,96218.69
2022-10-28T12:32:31.724Z,96219.19
2022-10-28T12:35:17.493Z,96216.84
2022-10-28T12:38:15.142Z,96212.97
2022-10-28T12:40:49.266Z,96219.00
2022-10-28T12:43:53.902Z,96209.16
2022-10-28T12:46:26.209Z,96209.66
2022-10-28T12:48:58.715Z,96210.09
2022-10-28T12:51:33.637Z,96207.41
2022-10-28T12:54:08.048Z,96217.00
2022-10-28T12:56:37.965Z,96206.41
2022-10-28T12:59:11.739Z,96208.03
2022-10-28T13:01:38.887Z,96210.47
2022-10-28T13:04:05.743Z,96204.19
2022-10-28T13:07:03.169Z,96208.19
2022-10-28T13:09:44.766Z,96207.84
2022-10-28T13:12:14.214Z,96198.00
2022-10-28T13:14:53.072Z,96202.00
2022-10-28T13:17:30.739Z,96198.84
2022-10-28T13:20:24.673Z,96187.78
2022-10-28T13:23:05.816Z,96195.72
2022-10-28T13:25:42.641Z,96187.47
2022-10-28T13:28:15.372Z,96182.75
2022-10-28T13:30:57.275Z,96197.34
2022-10-28T13:33:26.420Z,96190.28
2022-10-28T13:35:55.266Z,96189.50
2022-10-28T13:38:26.723Z,96195.88
2022-10-28T13:40:59.423Z,96193.88
2022-10-28T13:43:50.350Z,96189.50
2022-10-28T13:46:54.257Z,96193.06
2022-10-28T13:49:24.326Z,96188.69
2022-10-28T13:51:52.750Z,96189.47
2022-10-28T13:54:32.922Z,96187.91
2022-10-28T13:57:07.304Z,96190.22
2022-10-28T13:59:47.411Z,96184.28
2022-10-28T14:02:34.945Z,96181.88
2022-10-28T14:05:11.167Z,96181.47
2022-10-28T14:07:53.476Z,96191.31
2022-10-28T14:10:22.618Z,96184.16
2022-10-28T14:13:20.529Z,96195.19
2022-10-28T14:15:49.000Z,96187.72
2022-10-28T14:18:41.489Z,96187.63
2022-10-28T14:21:02.505Z,96187.63
2022-10-28T14:23:28.960Z,96186.41
2022-10-28T14:25:55.473Z,96191.50
2022-10-28T14:28:27.612Z,96193.47
2022-10-28T14:31:09.187Z,96195.00
2022-10-28T14:33:42.824Z,96196.63
2022-10-28T14:36:18.509Z,96197.72
2022-10-28T14:39:09.286Z,96196.09
2022-10-28T14:42:10.185Z,96194.06
2022-10-28T14:44:42.452Z,96199.19
2022-10-28T14:47:36.669Z,96198.31
2022-10-28T14:50:38.087Z,96200.25
2022-10-28T14:53:11.143Z,96203.00
2022-10-28T14:55:38.719Z,96198.22
2022-10-28T14:58:14.014Z,96201.72
2022-10-28T15:00:49.304Z,96200.50
2022-10-28T15:03:16.075Z,96202.06
2022-10-28T15:05:42.613Z,96196.44
2022-10-28T15:08:10.908Z,96193.63
2022-10-28T15:10:39.393Z,96194.31
2022-10-28T15:13:15.997Z,96191.44
2022-10-28T15:15:52.425Z,96196.84
2022-10-28T15:18:22.462Z,96199.56
2022-10-28T15:20:49.180Z,96196.66
2022-10-28T15:23:20.194Z,96202.06
2022-10-28T15:26:04.225Z,96195.63
2022-10-28T15:28:31.233Z,96199.41
2022-10-28T15:30:57.694Z,96200.44
2022-10-28T15:33:36.358Z,96204.59
2022-10-28T15:36:18.345Z,96192.97
2022-10-28T15:38:46.693Z,96189.31
2022-10-28T15:41:39.328Z,96194.97
2022-10-28T15:44:06.317Z,96186.53
2022-10-28T15:46:33.731Z,96195.03
2022-10-28T15:49:01.799Z,96200.38
2022-10-28T15:51:28.402Z,96195.66
2022-10-28T15:54:09.823Z,96198.41
2022-10-28T15:56:54.978Z,96202.91
2022-10-28T15:59:23.364Z,96201.16
2022-10-28T16:01:50.178Z,96201.38
2022-10-28T16:04:22.558Z,96199.50
2022-10-28T16:06:57.876Z,96201.97
2022-10-28T16:09:34.465Z,96205.28
2022-10-28T16:12:04.619Z,96196.41
2022-10-28T16:15:03.764Z,96202.81
2022-10-28T16:17:34.953Z,96194.47
2022-10-28T16:20:15.443Z,96197.84
2022-10-28T16:22:45.202Z,96185.84
2022-10-28T16:25:14.186Z,96195.97
2022-10-28T16:27:41.189Z,96197.03
2022-10-28T16:30:08.299Z,96194.56
2022-10-28T16:32:38.429Z,96192.03
2022-10-28T16:35:14.700Z,96191.53
2022-10-28T16:37:44.848Z,96192.22
2022-10-28T16:40:30.875Z,96190.53
2022-10-28T16:42:59.145Z,96190.44
2022-10-28T16:45:25.613Z,96189.50
2022-10-28T16:47:52.323Z,96184.72
2022-10-28T16:50:19.093Z,96195.28
2022-10-28T16:52:45.560Z,96190.81
2022-10-28T16:55:16.218Z,96198.16
2022-10-28T16:57:42.683Z,96197.72
2022-10-28T17:00:13.259Z,96197.63
2022-10-28T17:02:40.164Z,96201.09
2022-10-28T17:05:17.942Z,96196.63
2022-10-28T17:07:44.587Z,96209.94
2022-10-28T17:10:12.502Z,96218.53
2022-10-28T17:12:39.059Z,96207.41
2022-10-28T17:15:06.033Z,96214.44
2022-10-28T17:17:32.616Z,96212.38
2022-10-28T17:19:59.264Z,96212.72
2022-10-28T17:22:26.553Z,96212.28
2022-10-28T17:24:53.144Z,96211.72
2022-10-28T17:27:19.926Z,96208.19
2022-10-28T17:29:46.484Z,96212.41
2022-10-28T17:32:13.250Z,96206.03
2022-10-28T17:34:39.822Z,96205.09
2022-10-28T17:37:06.625Z,96219.09
2022-10-28T17:39:33.561Z,96212.34
2022-10-28T17:42:00.165Z,96210.63
2022-10-28T17:44:26.626Z,96207.00
2022-10-28T17:46:53.349Z,96210.44
2022-10-28T17:49:20.027Z,96209.50
2022-10-28T17:51:46.562Z,96211.34
2022-10-28T17:54:13.204Z,96202.50
2022-10-28T17:56:39.788Z,96208.69
2022-10-28T17:59:06.355Z,96209.72
2022-10-28T18:01:34.739Z,96212.03
2022-10-28T18:04:01.499Z,96205.16
2022-10-28T18:06:28.072Z,96206.19
2022-10-28T18:08:55.372Z,96209.63
2022-10-28T18:11:21.919Z,96204.72
2022-10-28T18:13:49.795Z,96208.94
2022-10-28T18:16:18.004Z,96210.44
2022-10-28T18:18:44.586Z,96213.41
2022-10-28T18:21:12.131Z,96212.84
2022-10-28T18:23:39.382Z,96209.50
2022-10-28T18:26:16.025Z,96213.28
2022-10-28T18:28:44.558Z,96211.56
2022-10-28T18:31:12.259Z,96210.66
2022-10-28T18:33:39.520Z,96205.84
2022-10-28T18:36:18.495Z,96203.31
2022-10-28T18:38:45.075Z,96214.28
2022-10-28T18:41:17.429Z,96214.63
2022-10-28T18:43:44.543Z,96222.03
2022-10-28T18:46:11.263Z,96213.38
2022-10-28T18:48:37.983Z,96210.16
2022-10-28T18:51:07.459Z,96214.03
2022-10-28T18:53:41.390Z,96217.13
2022-10-28T18:56:11.566Z,96222.16
2022-10-28T18:58:38.123Z,96216.22
2022-10-28T19:01:04.633Z,96223.63
2022-10-28T19:03:31.379Z,96217.19
2022-10-28T19:06:02.601Z,96215.94
2022-10-28T19:08:29.317Z,96212.72
2022-10-28T19:11:00.124Z,96219.69
2022-10-28T19:13:26.635Z,96211.34
2022-10-28T19:15:53.711Z,96218.28
2022-10-28T19:18:20.231Z,96209.94
2022-10-28T19:20:46.971Z,96218.50
2022-10-28T19:23:13.661Z,96220.00
2022-10-28T19:25:40.282Z,96214.38
2022-10-28T19:28:06.757Z,96209.56
2022-10-28T19:30:33.556Z,96224.78
2022-10-28T19:33:00.209Z,96218.69
2022-10-28T19:35:26.693Z,96222.91
2022-10-28T19:37:53.433Z,96217.28
2022-10-28T19:40:21.151Z,96231.66
2022-10-28T19:42:47.679Z,96228.78
2022-10-28T19:45:14.262Z,96233.00
2022-10-28T19:47:40.761Z,96228.22
2022-10-28T19:50:07.965Z,96234.81
2022-10-28T19:52:34.500Z,96232.75
2022-10-28T19:55:01.009Z,96232.28
2022-10-28T19:57:27.611Z,96238.09
2022-10-28T19:59:54.124Z,96237.28
2022-10-28T20:02:20.808Z,96243.09
2022-10-28T20:04:47.403Z,96240.34
2022-10-28T20:07:14.264Z,96243.91
2022-10-28T20:09:40.782Z,96234.88
2022-10-28T20:12:07.345Z,96247.78
2022-10-28T20:14:33.975Z,96247.00
2022-10-28T20:17:06.320Z,96243.44
2022-10-28T20:19:33.393Z,96257.13
2022-10-28T20:22:00.014Z,96253.59
2022-10-28T20:24:26.600Z,96252.31
2022-10-28T20:26:53.078Z,96254.25
2022-10-28T20:29:19.886Z,96246.38
2022-10-28T20:31:46.502Z,96247.53
2022-10-28T20:34:13.057Z,96256.53
2022-10-28T20:36:42.087Z,96249.78
2022-10-28T20:39:12.968Z,96255.59
2022-10-28T20:41:41.288Z,96248.19
2022-10-28T20:44:08.590Z,96258.66
2022-10-28T20:46:35.499Z,96254.34
2022-10-28T20:49:03.077Z,96253.53
2022-10-28T20:51:31.418Z,96259.31
2022-10-28T20:53:58.056Z,96253.06
2022-10-28T20:56:30.126Z,96253.38
2022-10-28T20:58:58.116Z,96247.13
2022-10-28T21:01:26.345Z,96251.31
2022-10-28T21:03:55.070Z,96246.50
2022-10-28T21:06:21.723Z,96247.28
2022-10-28T21:08:48.356Z,96243.31
2022-10-28T21:11:16.228Z,96245.25
2022-10-28T21:13:43.565Z,96233.00
2022-10-28T21:16:11.961Z,96236.88
2022-10-28T21:18:39.203Z,96239.59
2022-10-28T21:21:06.495Z,96240.75
2022-10-28T21:23:33.076Z,96239.59
2022-10-28T21:26:02.071Z,96234.97
2022-10-28T21:28:30.299Z,96240.75
2022-10-28T21:31:00.694Z,96236.44
2022-10-28T21:33:28.270Z,96235.28
2022-10-28T21:35:59.225Z,96240.44
2022-10-28T21:38:27.286Z,96232.22
2022-10-28T21:41:00.522Z,96238.03
2022-10-28T21:43:31.630Z,96235.63
2022-10-28T21:45:58.510Z,96234.47
2022-10-28T21:48:25.491Z,96230.94
2022-10-28T21:50:53.969Z,96232.88
2022-10-28T21:53:21.207Z,96232.38
2022-10-28T21:55:49.932Z,96233.22
2022-10-28T21:58:18.614Z,96242.56
2022-10-28T22:00:45.743Z,96237.41
2022-10-28T22:03:13.515Z,96241.25
2022-10-28T22:05:40.145Z,96238.81
2022-10-28T22:08:06.684Z,96242.72
2022-10-28T22:10:33.258Z,96235.63
2022-10-28T22:12:59.849Z,96239.19
2022-10-28T22:15:27.346Z,96237.25
2022-10-28T22:17:54.122Z,96231.31
2022-10-28T22:20:21.117Z,96245.00
2022-10-28T22:22:47.630Z,96247.41
2022-10-28T22:25:14.229Z,96250.16
2022-10-28T22:27:40.691Z,96247.41
2022-10-28T22:30:07.837Z,96239.97
2022-10-28T22:32:34.275Z,96233.72
2022-10-28T22:35:00.754Z,96232.56
2022-10-28T22:37:27.393Z,96223.22
2022-10-28T22:39:53.829Z,96232.22
2022-10-28T22:42:20.342Z,96218.53
2022-10-28T22:44:47.000Z,96222.06
2022-10-28T22:47:13.478Z,96222.88
2022-10-28T22:49:40.056Z,96221.78
2022-10-28T22:52:06.638Z,96220.97
2022-10-28T22:54:33.129Z,96223.38
2022-10-28T22:56:59.718Z,96217.13
2022-10-28T22:59:26.562Z,96217.91
2022-10-28T23:01:53.123Z,96223.38
2022-10-28T23:04:19.887Z,96217.13
2022-10-28T23:06:46.339Z,96226.13
2022-10-28T23:09:12.892Z,96222.59
2022-10-28T23:11:39.481Z,96226.13
2022-10-28T23:14:06.015Z,96220.97
2022-10-28T23:16:32.613Z,96217.75
2022-10-28T23:19:01.844Z,96219.19
2022-10-28T23:21:28.462Z,96226.94
2022-10-28T23:23:57.394Z,96229.56
2022-10-28T23:26:25.361Z,96223.13
2022-10-28T23:28:54.029Z,96224.13
2022-10-28T23:31:21.821Z,96224.31
2022-10-28T23:33:48.840Z,96224.53
2022-10-28T23:36:16.480Z,96219.22
2022-10-28T23:38:43.093Z,96223.75
2022-10-28T23:41:12.068Z,96222.78
2022-10-28T23:43:38.557Z,96226.53
2022-10-28T23:46:05.313Z,96225.91
2022-10-28T23:48:31.803Z,96228.03
2022-10-28T23:50:58.540Z,96225.47
2022-10-28T23:53:25.640Z,96233.88
2022-10-28T23:55:52.743Z,96228.91
2022-10-28T23:58:21.470Z,96228.75
